createdAt,value
2023-03-17T00:01:56.946Z,58.10
2023-03-17T00:04:27.523Z,58.10
2023-03-17T00:06:56.713Z,58.50
2023-03-17T00:09:23.848Z,58.50
2023-03-17T00:11:50.984Z,58.60
2023-03-17T00:14:20.114Z,58.80
2023-03-17T00:16:52.786Z,58.80
2023-03-17T00:19:35.823Z,58.90
2023-03-17T00:22:06.751Z,58.80
2023-03-17T00:24:34.313Z,59.10
2023-03-17T00:27:01.699Z,59.10
2023-03-17T00:29:30.045Z,59.20
2023-03-17T00:31:58.126Z,59.20
2023-03-17T00:34:25.190Z,59.30
2023-03-17T00:36:53.125Z,59.30
2023-03-17T00:39:20.659Z,59.50
2023-03-17T00:44:14.614Z,59.70
2023-03-17T00:46:42.242Z,60.00
2023-03-17T00:49:20.475Z,59.70
2023-03-17T00:51:49.900Z,59.70
2023-03-17T00:54:20.948Z,60.60
2023-03-17T00:56:52.000Z,59.90
2023-03-17T00:59:34.782Z,59.50
2023-03-17T01:02:01.804Z,59.90
2023-03-17T01:04:28.799Z,59.60
2023-03-17T01:06:55.876Z,59.80
2023-03-17T01:09:27.589Z,59.80
2023-03-17T01:11:55.932Z,59.70
2023-03-17T01:14:25.110Z,60.10
2023-03-17T01:16:55.183Z,59.90
2023-03-17T01:19:22.484Z,59.90
2023-03-17T01:21:49.373Z,59.80
2023-03-17T01:24:16.309Z,60.00
2023-03-17T01:26:43.346Z,59.90
2023-03-17T01:29:10.362Z,60.10
2023-03-17T01:31:37.451Z,60.00
2023-03-17T01:34:06.071Z,60.80
2023-03-17T01:36:34.168Z,60.20
2023-03-17T01:39:01.433Z,60.30
2023-03-17T01:41:28.480Z,60.20
2023-03-17T01:43:55.379Z,60.40
2023-03-17T01:46:27.603Z,60.50
2023-03-17T01:49:35.704Z,60.60
2023-03-17T01:52:16.348Z,60.90
2023-03-17T01:54:55.672Z,60.80
2023-03-17T01:57:32.924Z,60.90
2023-03-17T02:00:18.144Z,61.30
2023-03-17T02:02:51.560Z,61.20
2023-03-17T02:05:27.479Z,61.30
2023-03-17T02:07:56.125Z,61.50
2023-03-17T02:10:29.229Z,61.80
2023-03-17T02:13:05.571Z,62.10
2023-03-17T02:15:50.126Z,62.40
2023-03-17T02:18:22.556Z,62.10
2023-03-17T02:20:49.319Z,62.30
2023-03-17T02:23:22.908Z,62.60
2023-03-17T02:25:53.771Z,62.50
2023-03-17T02:28:32.101Z,62.70
2023-03-17T02:30:59.131Z,62.80
2023-03-17T02:33:27.590Z,63.00
2023-03-17T02:35:54.868Z,62.70
2023-03-17T02:38:22.132Z,62.80
2023-03-17T02:40:49.204Z,62.90
2023-03-17T02:43:16.685Z,63.20
2023-03-17T02:45:43.638Z,63.10
2023-03-17T02:48:10.939Z,63.10
2023-03-17T02:50:37.864Z,63.10
2023-03-17T02:53:04.935Z,62.80
2023-03-17T02:55:32.049Z,62.90
2023-03-17T02:57:59.022Z,63.10
2023-03-17T03:00:26.587Z,63.20
2023-03-17T03:02:53.629Z,63.10
2023-03-17T03:05:21.068Z,62.80
2023-03-17T03:07:48.250Z,63.40
2023-03-17T03:10:15.620Z,62.80
2023-03-17T03:12:42.618Z,62.80
2023-03-17T03:15:10.522Z,62.80
2023-03-17T03:17:38.974Z,62.80
2023-03-17T03:20:07.245Z,62.70
2023-03-17T03:22:34.338Z,62.00
2023-03-17T03:25:01.377Z,62.40
2023-03-17T03:27:28.338Z,62.50
2023-03-17T03:29:55.702Z,62.30
2023-03-17T03:32:22.960Z,62.30
2023-03-17T03:34:50.196Z,62.50
2023-03-17T03:37:17.281Z,62.30
2023-03-17T03:39:44.734Z,62.40
2023-03-17T03:42:12.079Z,62.10
2023-03-17T03:44:39.268Z,62.00
2023-03-17T03:47:06.623Z,62.20
2023-03-17T03:49:33.476Z,61.80
2023-03-17T03:52:00.596Z,62.00
2023-03-17T03:54:27.462Z,62.00
2023-03-17T03:56:54.374Z,62.10
2023-03-17T03:59:21.706Z,61.60
2023-03-17T04:01:48.596Z,61.70
2023-03-17T04:04:16.182Z,61.70
2023-03-17T04:06:44.455Z,61.60
2023-03-17T04:09:11.404Z,61.70
2023-03-17T04:11:38.398Z,61.40
2023-03-17T04:14:06.573Z,61.70
2023-03-17T04:16:33.697Z,61.60
2023-03-17T04:19:01.600Z,61.60
2023-03-17T04:21:28.777Z,61.50
2023-03-17T04:23:56.226Z,61.50
2023-03-17T04:26:23.521Z,61.70
2023-03-17T04:28:50.600Z,61.20
2023-03-17T04:31:17.660Z,61.40
2023-03-17T04:33:44.650Z,61.50
2023-03-17T04:36:23.968Z,61.40
2023-03-17T04:38:51.649Z,61.40
2023-03-17T04:41:21.128Z,61.40
2023-03-17T04:43:48.308Z,61.60
2023-03-17T04:46:16.202Z,61.20
2023-03-17T04:48:43.302Z,61.20
2023-03-17T04:51:11.866Z,61.00
2023-03-17T04:53:39.958Z,61.20
2023-03-17T04:56:07.335Z,61.10
2023-03-17T04:58:37.098Z,61.10
2023-03-17T05:01:05.158Z,60.80
2023-03-17T05:03:33.189Z,60.80
2023-03-17T05:06:02.720Z,60.50
2023-03-17T05:08:30.132Z,60.90
2023-03-17T05:10:58.586Z,60.70
2023-03-17T05:13:27.637Z,60.70
2023-03-17T05:15:59.654Z,60.90
2023-03-17T05:18:27.318Z,60.60
2023-03-17T05:20:54.828Z,60.50
2023-03-17T05:23:23.050Z,60.60
2023-03-17T05:25:50.929Z,60.60
2023-03-17T05:28:21.786Z,60.90
2023-03-17T05:30:50.870Z,60.60
2023-03-17T05:33:18.271Z,60.50
2023-03-17T05:35:46.352Z,60.30
2023-03-17T05:38:17.511Z,60.10
2023-03-17T05:40:45.584Z,60.10
2023-03-17T05:43:12.682Z,60.00
2023-03-17T05:45:46.427Z,59.60
2023-03-17T05:48:13.522Z,59.80
2023-03-17T05:50:43.744Z,59.50
2023-03-17T05:53:11.473Z,59.70
2023-03-17T05:55:38.641Z,59.20
2023-03-17T05:58:06.499Z,58.80
2023-03-17T06:00:39.778Z,59.10
2023-03-17T06:03:07.758Z,59.00
2023-03-17T06:05:35.831Z,58.90
2023-03-17T06:08:02.860Z,58.70
2023-03-17T06:10:30.086Z,58.60
2023-03-17T06:13:02.756Z,58.30
2023-03-17T06:15:31.919Z,58.30
2023-03-17T06:17:59.480Z,58.50
2023-03-17T06:20:26.392Z,58.40
2023-03-17T06:23:03.764Z,58.40
2023-03-17T06:25:34.141Z,58.30
2023-03-17T06:28:03.608Z,58.20
2023-03-17T06:30:34.176Z,58.20
2023-03-17T06:33:04.059Z,58.10
2023-03-17T06:35:32.637Z,58.10
2023-03-17T06:38:00.856Z,57.80
2023-03-17T06:40:28.466Z,58.00
2023-03-17T06:42:55.367Z,57.80
2023-03-17T06:45:26.145Z,57.60
2023-03-17T06:47:53.430Z,57.60
2023-03-17T06:50:21.441Z,57.40
2023-03-17T06:52:48.498Z,57.70
2023-03-17T06:55:15.865Z,57.20
2023-03-17T06:57:43.516Z,57.40
2023-03-17T07:00:13.982Z,57.40
2023-03-17T07:02:42.175Z,57.20
2023-03-17T07:05:09.774Z,57.10
2023-03-17T07:07:36.731Z,56.90
2023-03-17T07:10:05.849Z,56.90
2023-03-17T07:12:33.126Z,56.80
2023-03-17T07:15:00.881Z,57.50
2023-03-17T07:17:28.079Z,56.90
2023-03-17T07:19:55.228Z,56.60
2023-03-17T07:22:25.112Z,56.70
2023-03-17T07:24:52.528Z,56.60
2023-03-17T07:27:22.694Z,56.50
2023-03-17T07:29:49.959Z,56.30
2023-03-17T07:32:17.081Z,55.60
2023-03-17T07:34:44.122Z,55.60
2023-03-17T07:37:12.153Z,55.50
2023-03-17T07:39:40.004Z,55.00
2023-03-17T07:42:07.026Z,55.30
2023-03-17T07:44:34.372Z,55.00
2023-03-17T07:47:01.529Z,55.00
2023-03-17T07:49:40.812Z,55.00
2023-03-17T07:52:11.349Z,54.80
2023-03-17T07:54:42.244Z,54.60
2023-03-17T07:57:10.834Z,54.10
2023-03-17T07:59:40.021Z,53.80
2023-03-17T08:02:07.402Z,53.70
2023-03-17T08:04:36.257Z,53.60
2023-03-17T08:07:06.199Z,53.60
2023-03-17T08:09:33.511Z,53.30
2023-03-17T08:12:00.552Z,53.00
2023-03-17T08:14:27.513Z,53.20
2023-03-17T08:16:54.684Z,53.10
2023-03-17T08:19:23.366Z,53.00
2023-03-17T08:21:51.347Z,52.90
2023-03-17T08:24:18.600Z,52.40
2023-03-17T08:26:50.075Z,52.10
2023-03-17T08:29:17.006Z,52.30
2023-03-17T08:31:46.546Z,52.60
2023-03-17T08:34:14.937Z,52.10
2023-03-17T08:36:42.289Z,52.10
2023-03-17T08:39:10.460Z,51.90
2023-03-17T08:41:38.606Z,51.70
2023-03-17T08:44:06.010Z,51.60
2023-03-17T08:46:33.381Z,52.10
2023-03-17T08:49:03.273Z,51.60
2023-03-17T08:51:35.922Z,51.60
2023-03-17T08:54:05.874Z,51.30
2023-03-17T08:56:32.888Z,51.00
2023-03-17T08:59:00.574Z,50.80
2023-03-17T09:01:28.693Z,50.60
2023-03-17T09:03:56.232Z,50.60
2023-03-17T09:06:25.526Z,50.40
2023-03-17T09:08:55.765Z,50.20
2023-03-17T09:11:31.498Z,50.10
2023-03-17T09:13:59.256Z,49.80
2023-03-17T09:16:28.669Z,49.70
2023-03-17T09:18:55.787Z,49.10
2023-03-17T09:21:23.569Z,49.40
2023-03-17T09:23:51.914Z,48.80
2023-03-17T09:26:20.104Z,48.50
2023-03-17T09:28:47.427Z,48.40
2023-03-17T09:31:14.552Z,48.20
2023-03-17T09:33:42.504Z,48.00
2023-03-17T09:36:11.019Z,48.10
2023-03-17T09:38:39.151Z,47.70
2023-03-17T09:41:48.965Z,47.40
2023-03-17T09:45:01.722Z,47.60
2023-03-17T09:48:03.070Z,47.50
2023-03-17T09:50:50.956Z,46.80
2023-03-17T09:53:27.657Z,46.30
2023-03-17T09:56:00.476Z,45.50
2023-03-17T09:58:33.940Z,45.40
2023-03-17T10:01:05.536Z,44.80
2023-03-17T10:03:34.200Z,44.70
2023-03-17T10:06:46.788Z,45.00
2023-03-17T10:09:41.847Z,44.60
2023-03-17T10:13:10.200Z,44.50
2023-03-17T10:16:01.435Z,44.40
2023-03-17T10:18:43.230Z,43.60
2023-03-17T10:21:18.343Z,42.70
2023-03-17T10:23:46.479Z,43.30
2023-03-17T10:26:49.458Z,43.90
2023-03-17T10:29:22.706Z,43.70
2023-03-17T10:31:57.061Z,43.10
2023-03-17T10:34:36.647Z,42.90
2023-03-17T10:37:17.715Z,41.60
2023-03-17T10:39:57.824Z,42.10
2023-03-17T10:42:33.766Z,42.10
2023-03-17T10:45:33.828Z,41.80
2023-03-17T10:48:07.760Z,41.80
2023-03-17T10:50:39.910Z,42.20
2023-03-17T10:53:28.332Z,42.60
2023-03-17T10:56:20.267Z,42.60
2023-03-17T10:58:54.980Z,42.20
2023-03-17T11:01:38.481Z,41.80
2023-03-17T11:04:42.526Z,41.30
2023-03-17T11:07:40.407Z,41.50
2023-03-17T11:10:27.460Z,41.60
2023-03-17T11:13:02.112Z,41.80
2023-03-17T11:16:13.663Z,42.90
2023-03-17T11:18:44.681Z,42.80
2023-03-17T11:21:31.698Z,41.80
2023-03-17T11:24:14.776Z,41.90
2023-03-17T11:26:44.363Z,42.90
2023-03-17T11:29:57.663Z,42.00
2023-03-17T11:32:51.476Z,41.90
2023-03-17T11:36:11.919Z,41.80
2023-03-17T11:39:09.874Z,41.40
2023-03-17T11:41:47.445Z,40.00
2023-03-17T11:44:58.048Z,40.60
2023-03-17T11:47:57.329Z,40.90
2023-03-17T11:51:03.287Z,41.20
2023-03-17T11:54:24.944Z,40.90
2023-03-17T11:56:59.935Z,40.20
2023-03-17T12:02:58.660Z,40.80
2023-03-17T12:05:30.121Z,41.10
2023-03-17T12:08:03.282Z,41.20
2023-03-17T12:10:52.587Z,41.60
2023-03-17T12:13:58.548Z,41.60
2023-03-17T12:17:00.960Z,42.00
2023-03-17T12:29:49.813Z,42.60
2023-03-17T12:32:42.102Z,42.20
2023-03-17T12:35:35.077Z,42.30
2023-03-17T12:38:16.767Z,42.70
2023-03-17T12:41:19.828Z,43.10
2023-03-17T12:44:48.013Z,42.80
2023-03-17T12:47:52.467Z,42.90
2023-03-17T12:53:46.603Z,42.60
2023-03-17T12:56:35.300Z,42.60
2023-03-17T12:59:16.452Z,42.40
2023-03-17T13:02:24.869Z,42.80
2023-03-17T13:05:01.919Z,42.50
2023-03-17T13:07:51.294Z,42.30
2023-03-17T13:10:44.319Z,42.60
2023-03-17T13:13:46.053Z,42.50
2023-03-17T13:16:41.161Z,42.60
2023-03-17T13:19:29.676Z,42.60
2023-03-17T13:22:05.677Z,42.30
2023-03-17T13:24:54.553Z,42.20
2023-03-17T13:27:33.909Z,42.50
2023-03-17T13:30:43.727Z,42.70
2023-03-17T13:33:11.055Z,42.70
2023-03-17T13:36:14.899Z,42.50
2023-03-17T13:39:04.898Z,43.10
2023-03-17T13:42:29.025Z,43.20
2023-03-17T13:45:44.519Z,42.90
2023-03-17T13:48:40.453Z,42.60
2023-03-17T13:51:27.477Z,42.90
2023-03-17T13:54:20.506Z,43.00
2023-03-17T13:56:52.927Z,42.30
2023-03-17T13:59:39.388Z,42.50
2023-03-17T14:02:25.611Z,42.40
2023-03-17T14:05:27.506Z,42.60
2023-03-17T14:07:59.793Z,42.80
2023-03-17T14:10:32.814Z,42.70
2023-03-17T14:13:25.538Z,42.60
2023-03-17T14:16:20.994Z,42.30
2023-03-17T14:19:08.435Z,42.30
2023-03-17T14:21:36.558Z,42.20
2023-03-17T14:24:30.080Z,42.30
2023-03-17T14:26:57.601Z,41.30
2023-03-17T14:29:45.905Z,41.40
2023-03-17T14:32:21.823Z,41.50
2023-03-17T14:35:00.320Z,41.30
2023-03-17T14:37:34.656Z,41.60
2023-03-17T14:40:02.086Z,41.40
2023-03-17T14:42:48.437Z,41.50
2023-03-17T14:46:15.418Z,41.50
2023-03-17T14:48:59.579Z,41.70
2023-03-17T14:51:47.808Z,41.50
2023-03-17T14:54:45.096Z,41.80
2023-03-17T14:57:47.559Z,41.90
2023-03-17T15:00:58.212Z,41.90
2023-03-17T15:03:33.480Z,41.90
2023-03-17T15:06:36.819Z,42.20
2023-03-17T15:09:29.994Z,42.20
2023-03-17T15:12:29.855Z,42.10
2023-03-17T15:15:23.974Z,42.50
2023-03-17T15:17:57.216Z,42.50
2023-03-17T15:20:36.759Z,42.50
2023-03-17T15:23:20.845Z,42.90
2023-03-17T15:26:03.434Z,43.10
2023-03-17T15:28:37.759Z,42.80
2023-03-17T15:31:23.542Z,43.10
2023-03-17T15:34:00.970Z,42.40
2023-03-17T15:36:33.183Z,42.50
2023-03-17T15:39:09.816Z,43.30
2023-03-17T15:41:42.611Z,43.40
2023-03-17T15:44:10.852Z,43.60
2023-03-17T15:46:38.065Z,43.80
2023-03-17T15:49:12.615Z,43.90
2023-03-17T15:51:40.344Z,44.00
2023-03-17T15:54:15.498Z,44.30
2023-03-17T15:56:43.517Z,43.80
2023-03-17T15:59:12.102Z,44.10
2023-03-17T16:01:42.786Z,43.90
2023-03-17T16:04:12.876Z,44.10
2023-03-17T16:06:40.153Z,44.30
2023-03-17T16:09:36.855Z,44.00
2023-03-17T16:12:05.298Z,43.70
2023-03-17T16:14:35.882Z,43.70
2023-03-17T16:17:14.888Z,43.00
2023-03-17T16:19:48.890Z,43.10
2023-03-17T16:22:44.147Z,43.60
2023-03-17T16:25:32.045Z,43.40
2023-03-17T16:28:21.066Z,43.20
2023-03-17T16:31:23.125Z,43.20
2023-03-17T16:33:54.391Z,43.40
2023-03-17T16:36:28.960Z,43.10
2023-03-17T16:39:01.551Z,43.10
2023-03-17T16:41:35.647Z,43.00
2023-03-17T16:44:08.153Z,43.20
2023-03-17T16:46:36.195Z,43.50
2023-03-17T16:49:05.491Z,43.30
2023-03-17T16:51:32.537Z,43.60
2023-03-17T16:53:59.762Z,43.30
2023-03-17T16:56:27.975Z,43.40
2023-03-17T16:58:55.206Z,43.40
2023-03-17T17:01:27.495Z,43.50
2023-03-17T17:03:55.702Z,43.50
2023-03-17T17:06:26.017Z,43.70
2023-03-17T17:08:54.840Z,43.60
2023-03-17T17:11:22.390Z,43.60
2023-03-17T17:13:50.183Z,44.40
2023-03-17T17:16:33.408Z,43.90
2023-03-17T17:19:02.719Z,44.00
2023-03-17T17:21:33.973Z,43.90
2023-03-17T17:24:01.336Z,43.90
2023-03-17T17:26:34.407Z,43.70
2023-03-17T17:29:04.566Z,44.00
2023-03-17T17:31:34.738Z,43.70
2023-03-17T17:34:01.799Z,43.90
2023-03-17T17:36:31.600Z,43.80
2023-03-17T17:38:59.233Z,43.80
2023-03-17T17:41:26.606Z,44.00
2023-03-17T17:43:53.896Z,44.00
2023-03-17T17:46:24.337Z,44.30
2023-03-17T17:48:51.615Z,44.20
2023-03-17T17:51:18.663Z,44.20
2023-03-17T17:53:45.918Z,44.40
2023-03-17T17:56:18.183Z,44.40
2023-03-17T17:58:51.629Z,44.50
2023-03-17T18:01:22.373Z,44.60
2023-03-17T18:03:49.510Z,44.60
2023-03-17T18:06:18.109Z,45.00
2023-03-17T18:08:45.279Z,45.10
2023-03-17T18:11:15.568Z,45.90
2023-03-17T18:13:43.309Z,45.30
2023-03-17T18:16:20.406Z,45.50
2023-03-17T18:18:53.350Z,45.40
2023-03-17T18:21:20.545Z,45.50
2023-03-17T18:23:48.785Z,45.80
2023-03-17T18:26:17.987Z,45.70
2023-03-17T18:28:51.212Z,45.80
2023-03-17T18:31:27.548Z,46.00
2023-03-17T18:34:14.642Z,45.90
2023-03-17T18:36:46.467Z,46.10
2023-03-17T18:39:16.913Z,46.40
2023-03-17T18:41:48.930Z,46.40
2023-03-17T18:44:16.834Z,46.50
2023-03-17T18:46:48.157Z,46.60
2023-03-17T18:49:17.739Z,46.60
2023-03-17T18:51:44.959Z,46.80
2023-03-17T18:54:12.089Z,46.90
2023-03-17T18:56:39.137Z,47.10
2023-03-17T18:59:06.356Z,47.40
2023-03-17T19:01:33.617Z,47.20
2023-03-17T19:04:00.905Z,47.20
2023-03-17T19:06:27.870Z,47.40
2023-03-17T19:08:55.358Z,47.50
2023-03-17T19:11:23.323Z,47.60
2023-03-17T19:13:52.463Z,47.80
2023-03-17T19:16:31.249Z,47.80
2023-03-17T19:18:59.683Z,47.90
2023-03-17T19:21:27.718Z,48.10
2023-03-17T19:23:55.198Z,48.10
2023-03-17T19:26:24.455Z,48.20
2023-03-17T19:28:51.415Z,48.20
2023-03-17T19:31:18.611Z,48.10
2023-03-17T19:33:45.845Z,48.30
2023-03-17T19:36:14.202Z,48.40
2023-03-17T19:38:44.214Z,48.30
2023-03-17T19:41:11.210Z,48.40
2023-03-17T19:43:41.993Z,48.30
2023-03-17T19:46:12.672Z,48.50
2023-03-17T19:48:40.744Z,48.70
2023-03-17T19:51:08.479Z,48.70
2023-03-17T19:53:37.354Z,48.80
2023-03-17T19:56:08.595Z,49.10
2023-03-17T19:58:36.105Z,49.10
2023-03-17T20:01:07.562Z,49.10
2023-03-17T20:03:39.059Z,49.30
2023-03-17T20:06:06.469Z,49.30
2023-03-17T20:08:36.421Z,49.50
2023-03-17T20:11:06.121Z,49.70
2023-03-17T20:13:37.240Z,49.80
2023-03-17T20:16:07.302Z,50.00
2023-03-17T20:18:42.962Z,50.20
2023-03-17T20:21:16.714Z,50.10
2023-03-17T20:23:43.683Z,50.40
2023-03-17T20:26:10.946Z,50.50
2023-03-17T20:28:39.793Z,50.60
2023-03-17T20:31:08.018Z,50.70
2023-03-17T20:33:35.271Z,50.70
2023-03-17T20:36:03.708Z,51.00
2023-03-17T20:38:35.723Z,51.10
2023-03-17T20:41:17.350Z,51.30
2023-03-17T20:43:46.781Z,51.30
2023-03-17T20:46:32.803Z,51.30
2023-03-17T20:49:03.056Z,51.50
2023-03-17T20:51:30.008Z,51.50
2023-03-17T20:53:58.395Z,51.70
2023-03-17T20:56:26.672Z,51.90
2023-03-17T20:58:54.273Z,52.00
2023-03-17T21:01:23.243Z,51.80
2023-03-17T21:03:52.436Z,52.10
2023-03-17T21:06:20.704Z,52.20
2023-03-17T21:08:47.753Z,52.30
2023-03-17T21:11:20.804Z,52.30
2023-03-17T21:13:47.934Z,52.30
2023-03-17T21:16:30.682Z,52.50
2023-03-17T21:18:57.754Z,52.50
2023-03-17T21:21:28.113Z,52.60
2023-03-17T21:23:56.158Z,52.60
2023-03-17T21:26:24.623Z,52.80
2023-03-17T21:28:52.574Z,52.70
2023-03-17T21:31:19.750Z,52.80
2023-03-17T21:33:50.351Z,53.80
2023-03-17T21:36:19.585Z,53.10
2023-03-17T21:38:53.449Z,53.10
2023-03-17T21:41:38.978Z,53.20
2023-03-17T21:44:08.401Z,53.30
2023-03-17T21:46:35.482Z,53.50
2023-03-17T21:49:02.478Z,53.60
2023-03-17T21:51:30.627Z,53.50
2023-03-17T21:53:58.534Z,53.70
2023-03-17T21:56:25.755Z,53.60
2023-03-17T21:58:53.192Z,53.70
2023-03-17T22:01:23.604Z,53.80
2023-03-17T22:03:52.421Z,53.90
2023-03-17T22:06:21.511Z,53.90
2023-03-17T22:08:50.546Z,54.00
2023-03-17T22:11:19.700Z,54.10
2023-03-17T22:13:50.593Z,54.10
2023-03-17T22:16:19.714Z,54.10
2023-03-17T22:18:49.308Z,54.10
2023-03-17T22:21:21.631Z,54.30
2023-03-17T22:23:51.627Z,54.40
2023-03-17T22:26:21.956Z,54.40
2023-03-17T22:28:52.067Z,54.30
2023-03-17T22:31:28.677Z,54.60
2023-03-17T22:33:59.366Z,54.40
2023-03-17T22:36:28.401Z,54.40
2023-03-17T22:38:59.399Z,54.60
2023-03-17T22:41:29.573Z,54.60
2023-03-17T22:43:57.805Z,54.50
2023-03-17T22:46:25.985Z,54.60
2023-03-17T22:48:56.630Z,54.80
2023-03-17T22:51:26.870Z,54.60
2023-03-17T22:53:55.876Z,54.70
2023-03-17T22:56:24.020Z,54.60
2023-03-17T22:58:54.865Z,55.40
2023-03-17T23:01:27.290Z,54.90
2023-03-17T23:03:55.362Z,54.60
2023-03-17T23:06:26.277Z,54.80
2023-03-17T23:08:53.363Z,55.00
2023-03-17T23:11:26.289Z,54.90
2023-03-17T23:13:55.313Z,55.00
2023-03-17T23:16:23.525Z,55.10
2023-03-17T23:18:51.457Z,54.90
2023-03-17T23:21:34.115Z,55.00
2023-03-17T23:24:04.202Z,55.50
2023-03-17T23:26:32.753Z,55.00
2023-03-17T23:28:59.740Z,55.40
2023-03-17T23:31:30.146Z,55.20
2023-03-17T23:34:00.106Z,55.40
2023-03-17T23:36:27.446Z,55.30
2023-03-17T23:38:54.993Z,55.50
2023-03-17T23:41:22.611Z,55.50
2023-03-17T23:43:49.983Z,55.80
2023-03-17T23:46:20.678Z,55.60
2023-03-17T23:48:50.246Z,55.80
2023-03-17T23:51:20.258Z,55.60
2023-03-17T23:53:48.149Z,55.30
2023-03-17T23:56:15.056Z,55.50
2023-03-17T23:58:46.498Z,55.50
